Time;durP1;ratioP1;P1;durP2;ratioP2;P2;SDS_P1;SDS_P2;PMS_P1;PMS_P2;Temp;Humidity;BMP_temperature;BMP_pressure;BME280_temperature;BME280_humidity;BME280_pressure;Samples;Min_cycle;Max_cycle;Signal;HPM_P1;HPM_P2
2021/08/27 00:01:35;;;;;;;;;8.00;6.50;;;;;;;;5074992;28;8812;-79
2021/08/27 00:04:03;;;;;;;;;7.00;5.00;;;;;;;;5066892;28;9613;-79
2021/08/27 00:06:30;;;;;;;;;5.00;5.00;;;;;;;;5065652;28;8937;-78
2021/08/27 00:08:58;;;;;;;;;7.00;4.25;;;;;;;;5067163;28;9709;-79
2021/08/27 00:11:25;;;;;;;;;10.75;8.75;;;;;;;;5066473;28;8884;-79
2021/08/27 00:13:54;;;;;;;;;2.50;2.00;;;;;;;;5057226;28;8875;-79
2021/08/27 00:16:21;;;;;;;;;6.75;6.75;;;;;;;;5066592;28;8848;-79
2021/08/27 00:18:49;;;;;;;;;5.50;5.00;;;;;;;;5084478;28;8930;-78
2021/08/27 00:21:16;;;;;;;;;5.50;5.50;;;;;;;;5087262;28;8900;-78
2021/08/27 00:23:43;;;;;;;;;7.50;7.50;;;;;;;;5083129;28;8889;-79
2021/08/27 00:26:10;;;;;;;;;5.75;4.50;;;;;;;;5066879;28;8883;-79
2021/08/27 00:28:38;;;;;;;;;5.50;5.50;;;;;;;;5065865;28;8868;-79
2021/08/27 00:31:06;;;;;;;;;10.25;6.25;;;;;;;;5065717;28;8800;-79
2021/08/27 00:33:34;;;;;;;;;10.50;6.00;;;;;;;;5070647;28;8849;-79
2021/08/27 00:36:01;;;;;;;;;11.50;7.75;;;;;;;;5085751;28;8881;-79
2021/08/27 00:38:28;;;;;;;;;6.25;4.75;;;;;;;;5066627;28;8895;-79
2021/08/27 00:40:56;;;;;;;;;6.75;5.00;;;;;;;;5065313;28;8911;-79
2021/08/27 00:43:23;;;;;;;;;3.00;3.00;;;;;;;;5066504;28;8974;-78
2021/08/27 00:45:50;;;;;;;;;10.00;6.50;;;;;;;;5065223;28;8907;-79
2021/08/27 00:48:19;;;;;;;;;4.50;4.50;;;;;;;;5074613;28;8857;-79
2021/08/27 00:50:48;;;;;;;;;5.75;5.75;;;;;;;;5072810;28;8871;-80
2021/08/27 00:53:16;;;;;;;;;8.25;5.75;;;;;;;;5074314;28;8881;-77
2021/08/27 00:55:45;;;;;;;;;7.25;6.00;;;;;;;;5086401;28;8967;-79
2021/08/27 00:58:13;;;;;;;;;7.75;7.75;;;;;;;;5083331;28;8996;-79
2021/08/27 01:00:41;;;;;;;;;7.75;5.25;;;;;;;;5065278;28;8935;-78
2021/08/27 01:03:09;;;;;;;;;8.75;6.00;;;;;;;;5064884;28;8879;-80
2021/08/27 01:05:40;;;;;;;;;7.75;7.75;;;;;;;;5047890;28;9007;-79
2021/08/27 01:08:14;;;;;;;;;9.25;6.50;;;;;;;;5076588;28;8895;-78
2021/08/27 01:10:45;;;;;;;;;10.50;6.00;;;;;;;;5085427;28;9740;-78
2021/08/27 01:13:17;;;;;;;;;6.50;6.00;;;;;;;;5086344;28;8869;-78
2021/08/27 01:15:51;;;;;;;;;9.75;8.75;;;;;;;;5065180;28;9014;-78
2021/08/27 01:18:24;;;;;;;;;10.25;8.00;;;;;;;;5066054;28;8884;-79
2021/08/27 01:21:19;;;;;;;;;6.50;3.75;;;;;;;;5074108;28;8912;-78
2021/08/27 01:23:48;;;;;;;;;10.75;5.50;;;;;;;;5067320;28;8998;-79
2021/08/27 01:26:18;;;;;;;;;9.00;6.50;;;;;;;;5047502;28;8876;-78
2021/08/27 01:28:49;;;;;;;;;9.00;6.50;;;;;;;;5063929;28;8891;-79
2021/08/27 01:31:25;;;;;;;;;7.25;7.25;;;;;;;;5080642;28;8836;-79
2021/08/27 01:34:01;;;;;;;;;9.75;7.00;;;;;;;;5060488;28;8902;-79
2021/08/27 01:36:33;;;;;;;;;12.00;8.00;;;;;;;;5063133;28;8856;-79
2021/08/27 01:39:02;;;;;;;;;5.75;5.75;;;;;;;;5065208;28;8994;-79
2021/08/27 01:41:30;;;;;;;;;6.50;6.50;;;;;;;;5067545;28;8980;-79
2021/08/27 01:43:59;;;;;;;;;7.75;6.00;;;;;;;;5064007;28;8884;-78
2021/08/27 01:46:26;;;;;;;;;7.25;7.00;;;;;;;;5069987;28;8881;-79
2021/08/27 01:48:54;;;;;;;;;10.50;6.00;;;;;;;;5085589;28;8891;-79
2021/08/27 01:51:22;;;;;;;;;8.75;4.00;;;;;;;;5077489;28;8841;-79
2021/08/27 01:53:51;;;;;;;;;7.50;7.25;;;;;;;;5065496;28;8990;-79
2021/08/27 01:56:19;;;;;;;;;5.75;5.00;;;;;;;;5051942;28;8994;-78
2021/08/27 01:58:46;;;;;;;;;5.50;5.50;;;;;;;;5064476;28;8986;-79
2021/08/27 02:01:14;;;;;;;;;8.75;6.75;;;;;;;;5063517;28;8826;-79
2021/08/27 02:03:42;;;;;;;;;10.50;6.75;;;;;;;;5057047;28;8891;-79
2021/08/27 02:06:09;;;;;;;;;12.00;8.00;;;;;;;;5084982;28;10096;-78
2021/08/27 02:08:39;;;;;;;;;3.00;3.00;;;;;;;;5081407;28;8873;-79
2021/08/27 02:11:08;;;;;;;;;9.50;7.50;;;;;;;;5029355;28;8871;-80
2021/08/27 02:13:36;;;;;;;;;6.25;6.00;;;;;;;;5075287;28;8966;-79
2021/08/27 02:16:06;;;;;;;;;10.50;9.25;;;;;;;;5061673;28;8978;-79
2021/08/27 02:18:34;;;;;;;;;9.75;6.00;;;;;;;;5081761;28;9014;-79
2021/08/27 02:21:02;;;;;;;;;7.00;6.25;;;;;;;;5065187;28;8869;-79
2021/08/27 02:23:29;;;;;;;;;7.25;7.25;;;;;;;;5066467;28;8877;-79
2021/08/27 02:25:57;;;;;;;;;5.00;5.00;;;;;;;;5074673;28;8869;-79
2021/08/27 02:28:26;;;;;;;;;8.25;6.00;;;;;;;;5072389;28;8853;-79
2021/08/27 02:30:54;;;;;;;;;8.50;6.75;;;;;;;;5076163;28;8777;-79
2021/08/27 02:33:22;;;;;;;;;13.50;6.75;;;;;;;;5064192;28;8889;-79
2021/08/27 02:35:50;;;;;;;;;11.00;7.75;;;;;;;;5064369;28;8856;-79
2021/08/27 02:38:20;;;;;;;;;6.75;6.50;;;;;;;;5063893;28;8891;-79
2021/08/27 02:40:48;;;;;;;;;11.25;7.25;;;;;;;;5064716;28;8868;-81
2021/08/27 02:43:15;;;;;;;;;9.25;6.00;;;;;;;;5063675;28;10477;-79
2021/08/27 02:45:44;;;;;;;;;13.00;7.25;;;;;;;;5062594;28;8963;-79
2021/08/27 02:48:11;;;;;;;;;6.75;6.75;;;;;;;;5067305;28;8902;-80
2021/08/27 02:50:44;;;;;;;;;5.25;5.25;;;;;;;;5061579;28;8880;-79
2021/08/27 02:53:15;;;;;;;;;8.75;6.00;;;;;;;;5072516;28;8875;-78
2021/08/27 02:55:46;;;;;;;;;9.00;8.25;;;;;;;;5078041;28;8889;-78
2021/08/27 02:58:18;;;;;;;;;10.50;6.75;;;;;;;;5076179;28;8898;-78
2021/08/27 03:00:52;;;;;;;;;8.25;8.25;;;;;;;;5077965;28;8852;-78
2021/08/27 03:03:23;;;;;;;;;10.50;7.00;;;;;;;;5078378;28;8888;-78
2021/08/27 03:05:53;;;;;;;;;12.00;7.25;;;;;;;;5078934;28;9554;-79
2021/08/27 03:08:23;;;;;;;;;6.25;6.25;;;;;;;;5071387;28;8856;-79
2021/08/27 03:10:56;;;;;;;;;9.75;6.25;;;;;;;;5063789;28;9025;-78
2021/08/27 03:13:29;;;;;;;;;9.00;6.25;;;;;;;;5056365;28;8856;-79
2021/08/27 03:16:02;;;;;;;;;10.50;10.50;;;;;;;;5071482;28;9027;-78
2021/08/27 03:18:36;;;;;;;;;9.50;9.50;;;;;;;;5080969;28;8972;-78
2021/08/27 03:21:08;;;;;;;;;12.25;9.25;;;;;;;;5067123;28;8900;-79
2021/08/27 03:23:36;;;;;;;;;10.25;10.00;;;;;;;;5075808;28;8877;-78
2021/08/27 03:26:03;;;;;;;;;10.00;10.00;;;;;;;;5062957;28;8978;-78
2021/08/27 03:28:35;;;;;;;;;6.50;5.25;;;;;;;;5080285;28;8901;-79
2021/08/27 03:31:04;;;;;;;;;13.25;10.50;;;;;;;;5066533;28;8777;-80
2021/08/27 03:33:31;;;;;;;;;7.00;5.50;;;;;;;;5075344;28;8935;-80
2021/08/27 03:35:59;;;;;;;;;6.00;6.00;;;;;;;;5088008;28;8857;-79
2021/08/27 03:38:27;;;;;;;;;10.00;7.00;;;;;;;;5061028;28;8902;-79
2021/08/27 03:40:55;;;;;;;;;9.00;8.75;;;;;;;;5067673;28;9602;-79
2021/08/27 03:43:23;;;;;;;;;8.50;7.50;;;;;;;;5083142;28;8887;-78
2021/08/27 03:45:51;;;;;;;;;3.50;3.50;;;;;;;;5071005;28;9332;-79
2021/08/27 03:48:21;;;;;;;;;9.00;6.75;;;;;;;;5066807;28;8988;-79
2021/08/27 03:50:50;;;;;;;;;7.00;6.50;;;;;;;;5069914;28;8864;-79
2021/08/27 03:53:17;;;;;;;;;9.75;6.25;;;;;;;;5051818;28;8963;-78
2021/08/27 03:55:48;;;;;;;;;7.75;7.75;;;;;;;;5072749;28;8873;-77
2021/08/27 03:58:16;;;;;;;;;7.00;7.00;;;;;;;;5069002;28;9034;-78
2021/08/27 04:00:43;;;;;;;;;5.50;4.75;;;;;;;;5069123;28;8793;-78
2021/08/27 04:03:11;;;;;;;;;10.00;8.00;;;;;;;;5079005;28;8911;-79
2021/08/27 04:05:56;;;;;;;;;10.50;8.00;;;;;;;;5085609;28;9027;-79
2021/08/27 04:08:24;;;;;;;;;9.50;9.50;;;;;;;;5081499;28;8888;-79
2021/08/27 04:10:51;;;;;;;;;9.25;7.75;;;;;;;;5049159;28;8951;-82
2021/08/27 04:13:19;;;;;;;;;9.00;7.75;;;;;;;;5072112;28;8901;-81
2021/08/27 04:15:46;;;;;;;;;10.25;8.50;;;;;;;;5062569;28;8863;-80
2021/08/27 04:18:13;;;;;;;;;7.00;6.75;;;;;;;;5070682;28;9011;-80
2021/08/27 04:20:42;;;;;;;;;8.75;8.50;;;;;;;;5066900;28;8998;-82
2021/08/27 04:23:10;;;;;;;;;11.50;7.50;;;;;;;;5040455;28;8876;-82
2021/08/27 04:25:37;;;;;;;;;7.00;6.25;;;;;;;;5063898;28;9742;-82
2021/08/27 04:28:05;;;;;;;;;11.00;7.00;;;;;;;;5065416;28;8877;-82
2021/08/27 04:30:32;;;;;;;;;10.25;6.75;;;;;;;;5051676;28;8840;-83
2021/08/27 04:32:59;;;;;;;;;6.25;6.25;;;;;;;;5076990;28;8869;-81
2021/08/27 04:35:27;;;;;;;;;10.75;10.25;;;;;;;;5053781;28;8883;-83
2021/08/27 04:37:55;;;;;;;;;7.00;7.00;;;;;;;;5061359;28;8872;-85
2021/08/27 04:40:24;;;;;;;;;11.00;8.75;;;;;;;;5069954;28;8899;-86
2021/08/27 04:42:51;;;;;;;;;10.50;8.25;;;;;;;;5087845;28;8950;-84
2021/08/27 04:45:19;;;;;;;;;15.75;11.75;;;;;;;;5060699;28;8876;-86
2021/08/27 04:47:46;;;;;;;;;9.25;9.25;;;;;;;;5070543;28;8866;-84
2021/08/27 04:50:14;;;;;;;;;13.75;9.50;;;;;;;;5068220;28;8910;-83
2021/08/27 04:52:41;;;;;;;;;9.50;9.50;;;;;;;;5077223;28;8916;-88
2021/08/27 04:55:11;;;;;;;;;11.50;9.25;;;;;;;;5066982;28;8890;-85
2021/08/27 04:57:39;;;;;;;;;12.25;10.75;;;;;;;;5064850;28;8896;-86
2021/08/27 05:00:09;;;;;;;;;17.25;10.00;;;;;;;;5065665;28;9023;-84
2021/08/27 05:02:36;;;;;;;;;11.00;10.00;;;;;;;;5066460;28;8848;-85
2021/08/27 05:05:04;;;;;;;;;11.00;8.75;;;;;;;;5071808;28;8895;-85
2021/08/27 05:07:31;;;;;;;;;4.25;4.25;;;;;;;;5066814;28;8860;-83
2021/08/27 05:09:59;;;;;;;;;15.50;11.25;;;;;;;;5078260;28;8909;-84
2021/08/27 05:12:28;;;;;;;;;11.00;11.00;;;;;;;;5049280;28;8891;-84
2021/08/27 05:14:56;;;;;;;;;12.75;10.75;;;;;;;;5071561;28;8936;-82
2021/08/27 05:17:23;;;;;;;;;12.25;9.25;;;;;;;;5048978;28;9512;-81
2021/08/27 05:19:50;;;;;;;;;13.75;12.25;;;;;;;;5075421;28;8873;-84
2021/08/27 05:22:18;;;;;;;;;11.50;11.50;;;;;;;;5066875;28;8871;-80
2021/08/27 05:24:46;;;;;;;;;12.00;12.00;;;;;;;;5066855;28;8883;-81
2021/08/27 05:27:14;;;;;;;;;13.75;13.50;;;;;;;;5064330;28;9425;-79
2021/08/27 05:29:42;;;;;;;;;13.50;13.50;;;;;;;;5071019;28;8873;-78
2021/08/27 05:32:10;;;;;;;;;11.50;10.50;;;;;;;;5062823;28;8847;-78
2021/08/27 05:34:37;;;;;;;;;16.50;15.00;;;;;;;;5078301;28;9012;-77
2021/08/27 05:37:05;;;;;;;;;14.00;11.50;;;;;;;;5050384;28;8886;-75
2021/08/27 05:39:32;;;;;;;;;16.25;11.50;;;;;;;;5063833;28;8883;-76
2021/08/27 05:42:00;;;;;;;;;13.50;13.00;;;;;;;;5061739;28;8871;-75
2021/08/27 05:44:28;;;;;;;;;16.50;14.75;;;;;;;;5061494;28;8859;-75
2021/08/27 05:46:57;;;;;;;;;14.25;13.00;;;;;;;;5065341;28;8913;-75
2021/08/27 05:49:25;;;;;;;;;16.75;13.75;;;;;;;;5064165;28;9796;-75
2021/08/27 05:51:52;;;;;;;;;18.50;17.50;;;;;;;;5064998;28;8919;-75
2021/08/27 05:54:19;;;;;;;;;18.50;15.75;;;;;;;;5064042;28;8867;-76
2021/08/27 05:56:47;;;;;;;;;19.00;16.50;;;;;;;;5067400;28;8994;-75
2021/08/27 05:59:14;;;;;;;;;16.50;14.50;;;;;;;;5056110;28;9719;-75
2021/08/27 06:01:42;;;;;;;;;16.50;16.50;;;;;;;;5063408;28;8820;-75
2021/08/27 06:04:12;;;;;;;;;20.75;15.00;;;;;;;;5065162;28;9844;-75
2021/08/27 06:06:39;;;;;;;;;20.25;17.00;;;;;;;;5063512;28;8868;-76
2021/08/27 06:09:07;;;;;;;;;18.25;18.25;;;;;;;;5064906;28;8864;-76
2021/08/27 06:11:37;;;;;;;;;14.00;14.00;;;;;;;;5063260;28;8926;-76
2021/08/27 06:14:05;;;;;;;;;23.00;16.00;;;;;;;;5071032;28;8872;-75
2021/08/27 06:16:33;;;;;;;;;15.25;14.50;;;;;;;;5064244;28;8867;-75
2021/08/27 06:19:02;;;;;;;;;20.50;17.75;;;;;;;;5046631;28;8875;-75
2021/08/27 06:21:31;;;;;;;;;18.00;16.00;;;;;;;;5064796;28;8871;-75
2021/08/27 06:23:58;;;;;;;;;19.25;19.25;;;;;;;;5058476;28;8871;-76
2021/08/27 06:26:25;;;;;;;;;18.00;15.50;;;;;;;;5063959;28;8864;-76
2021/08/27 06:28:52;;;;;;;;;21.75;16.00;;;;;;;;5063436;28;9662;-75
2021/08/27 06:31:20;;;;;;;;;19.75;16.00;;;;;;;;5046082;28;8851;-76
2021/08/27 06:33:47;;;;;;;;;17.75;13.25;;;;;;;;5045808;28;8917;-75
2021/08/27 06:36:15;;;;;;;;;18.75;15.75;;;;;;;;5063644;28;8925;-75
2021/08/27 06:38:44;;;;;;;;;20.00;14.75;;;;;;;;5038061;28;8864;-75
2021/08/27 06:41:11;;;;;;;;;14.25;12.75;;;;;;;;5062734;28;8953;-76
2021/08/27 06:43:41;;;;;;;;;16.00;14.50;;;;;;;;5064447;28;8875;-76
2021/08/27 06:46:12;;;;;;;;;17.25;13.25;;;;;;;;5074861;28;8875;-76
2021/08/27 06:48:40;;;;;;;;;15.75;13.50;;;;;;;;5073717;28;8905;-75
2021/08/27 06:51:07;;;;;;;;;14.25;10.50;;;;;;;;5083688;28;8978;-76
2021/08/27 06:53:35;;;;;;;;;17.00;12.25;;;;;;;;5083604;28;8984;-75
2021/08/27 06:56:04;;;;;;;;;17.50;14.50;;;;;;;;5083850;28;8882;-76
2021/08/27 06:58:31;;;;;;;;;12.25;12.25;;;;;;;;5082791;28;8905;-76
2021/08/27 07:00:59;;;;;;;;;10.00;10.00;;;;;;;;5083087;28;8859;-76
2021/08/27 07:03:26;;;;;;;;;14.00;10.00;;;;;;;;5081118;28;8869;-76
2021/08/27 07:05:53;;;;;;;;;9.25;7.00;;;;;;;;5081501;28;8918;-76
2021/08/27 07:08:21;;;;;;;;;12.50;7.75;;;;;;;;5083232;28;9695;-75
2021/08/27 07:10:48;;;;;;;;;7.50;6.00;;;;;;;;5083493;28;8865;-75
2021/08/27 07:13:17;;;;;;;;;7.25;7.00;;;;;;;;5054289;28;8902;-76
2021/08/27 07:15:44;;;;;;;;;7.75;7.75;;;;;;;;5061606;28;9691;-75
2021/08/27 07:18:12;;;;;;;;;6.00;5.25;;;;;;;;5063949;28;8864;-75
2021/08/27 07:20:40;;;;;;;;;7.75;7.75;;;;;;;;5063252;28;8913;-75
2021/08/27 07:23:07;;;;;;;;;9.25;6.00;;;;;;;;5076732;28;8996;-75
2021/08/27 07:25:34;;;;;;;;;8.25;6.00;;;;;;;;5064605;28;8898;-75
2021/08/27 07:28:01;;;;;;;;;6.00;5.75;;;;;;;;5063777;28;8875;-75
2021/08/27 07:30:31;;;;;;;;;4.75;2.50;;;;;;;;5062929;28;8895;-75
2021/08/27 07:32:58;;;;;;;;;9.50;6.75;;;;;;;;5063016;28;8860;-75
2021/08/27 07:35:25;;;;;;;;;7.00;5.25;;;;;;;;5070993;28;8853;-75
2021/08/27 07:37:52;;;;;;;;;6.00;6.00;;;;;;;;5070168;28;8863;-75
2021/08/27 07:40:20;;;;;;;;;5.50;5.50;;;;;;;;5083397;28;9012;-76
2021/08/27 07:42:47;;;;;;;;;8.00;6.00;;;;;;;;5071805;28;8898;-75
2021/08/27 07:45:16;;;;;;;;;6.00;4.00;;;;;;;;5060457;28;8888;-75
2021/08/27 07:47:46;;;;;;;;;3.00;1.75;;;;;;;;5063334;28;8874;-75
2021/08/27 07:50:15;;;;;;;;;5.75;4.75;;;;;;;;5063423;28;8898;-75
2021/08/27 07:52:42;;;;;;;;;5.75;5.00;;;;;;;;5063665;28;8903;-75
2021/08/27 07:55:10;;;;;;;;;4.25;4.25;;;;;;;;5062250;28;8872;-76
2021/08/27 07:57:42;;;;;;;;;8.75;5.50;;;;;;;;5061846;28;8877;-76
2021/08/27 08:00:10;;;;;;;;;4.50;4.50;;;;;;;;5081906;28;8873;-75
2021/08/27 08:02:37;;;;;;;;;3.25;3.25;;;;;;;;5083260;28;9627;-76
2021/08/27 08:05:08;;;;;;;;;6.50;6.50;;;;;;;;5065338;28;8935;-75
2021/08/27 08:07:35;;;;;;;;;5.00;3.00;;;;;;;;5082525;28;8885;-76
2021/08/27 08:10:03;;;;;;;;;3.75;3.75;;;;;;;;5083621;28;8895;-76
2021/08/27 08:12:30;;;;;;;;;5.00;3.00;;;;;;;;5068878;28;8927;-76
2021/08/27 08:14:58;;;;;;;;;2.00;2.00;;;;;;;;5074188;28;8875;-76
2021/08/27 08:17:25;;;;;;;;;2.00;2.00;;;;;;;;5066012;28;8890;-75
2021/08/27 08:19:53;;;;;;;;;4.80;2.40;;;;;;;;5067023;28;8884;-75
2021/08/27 08:22:21;;;;;;;;;0.00;0.00;;;;;;;;5066560;28;8876;-75
2021/08/27 08:24:49;;;;;;;;;3.00;3.00;;;;;;;;5055665;28;8888;-75
2021/08/27 08:27:17;;;;;;;;;2.60;2.60;;;;;;;;5087162;28;8968;-75
2021/08/27 08:29:44;;;;;;;;;0.00;0.00;;;;;;;;5073734;28;9007;-75
2021/08/27 08:32:12;;;;;;;;;2.80;2.00;;;;;;;;5072691;28;8820;-75
2021/08/27 08:34:39;;;;;;;;;2.00;2.00;;;;;;;;5065384;28;8871;-76
2021/08/27 08:37:08;;;;;;;;;3.00;3.00;;;;;;;;5063386;28;8917;-75
2021/08/27 08:39:37;;;;;;;;;2.80;1.00;;;;;;;;5043609;28;8848;-76
2021/08/27 08:42:05;;;;;;;;;2.00;2.00;;;;;;;;5065822;28;8855;-75
2021/08/27 08:44:32;;;;;;;;;3.40;2.60;;;;;;;;5066250;28;8877;-76
2021/08/27 08:47:00;;;;;;;;;2.00;1.60;;;;;;;;5080071;28;8996;-76
2021/08/27 08:49:29;;;;;;;;;3.00;3.00;;;;;;;;5087096;28;8880;-76
2021/08/27 08:51:58;;;;;;;;;2.60;2.60;;;;;;;;5067379;28;8893;-76
2021/08/27 08:54:25;;;;;;;;;2.00;2.00;;;;;;;;5086713;28;8992;-76
2021/08/27 08:56:54;;;;;;;;;1.80;1.80;;;;;;;;5085542;28;8877;-76
2021/08/27 08:59:22;;;;;;;;;2.00;2.00;;;;;;;;5086022;28;8873;-77
2021/08/27 09:01:50;;;;;;;;;1.00;1.00;;;;;;;;5085246;28;8813;-77
2021/08/27 09:04:17;;;;;;;;;1.60;0.20;;;;;;;;5073085;28;8893;-76
2021/08/27 09:06:44;;;;;;;;;1.00;1.00;;;;;;;;5086294;28;9062;-76
2021/08/27 09:09:11;;;;;;;;;1.20;1.20;;;;;;;;5085221;28;8869;-77
2021/08/27 09:11:39;;;;;;;;;1.20;1.20;;;;;;;;5085512;28;8865;-77
2021/08/27 09:14:08;;;;;;;;;3.40;1.00;;;;;;;;5073657;28;8918;-77
2021/08/27 09:16:36;;;;;;;;;1.80;1.80;;;;;;;;5065619;28;8863;-77
2021/08/27 09:19:03;;;;;;;;;2.00;0.00;;;;;;;;5065555;28;8906;-77
2021/08/27 09:21:37;;;;;;;;;1.00;1.00;;;;;;;;5078786;28;8873;-77
2021/08/27 09:24:22;;;;;;;;;0.40;0.40;;;;;;;;5080373;28;8856;-77
2021/08/27 09:26:52;;;;;;;;;0.40;0.40;;;;;;;;5064439;28;9649;-77
2021/08/27 09:29:39;;;;;;;;;1.60;1.60;;;;;;;;5065667;28;8980;-78
2021/08/27 09:32:24;;;;;;;;;1.00;1.00;;;;;;;;5064584;28;8842;-77
2021/08/27 09:35:05;;;;;;;;;0.00;0.00;;;;;;;;5059556;28;8890;-77
2021/08/27 09:37:40;;;;;;;;;0.40;0.40;;;;;;;;5058748;28;8862;-77
2021/08/27 09:40:09;;;;;;;;;1.00;1.00;;;;;;;;5082783;28;8861;-77
2021/08/27 09:42:38;;;;;;;;;3.00;1.00;;;;;;;;5058612;28;8863;-77
2021/08/27 09:45:09;;;;;;;;;2.80;1.00;;;;;;;;5060848;28;8863;-77
2021/08/27 09:47:37;;;;;;;;;1.80;1.80;;;;;;;;5043197;28;8881;-75
2021/08/27 09:50:25;;;;;;;;;1.00;1.00;;;;;;;;5045730;28;8872;-77
2021/08/27 09:52:54;;;;;;;;;1.00;1.00;;;;;;;;5047928;28;8869;-77
2021/08/27 09:55:22;;;;;;;;;1.00;1.00;;;;;;;;5058548;28;8890;-76
2021/08/27 09:57:49;;;;;;;;;1.20;1.20;;;;;;;;5064187;28;8935;-77
2021/08/27 10:00:22;;;;;;;;;3.00;1.20;;;;;;;;5064371;28;8892;-77
2021/08/27 10:02:50;;;;;;;;;1.60;1.60;;;;;;;;5065246;28;8909;-76
2021/08/27 10:05:17;;;;;;;;;4.60;4.60;;;;;;;;5052484;28;8881;-76
2021/08/27 10:07:45;;;;;;;;;4.40;4.40;;;;;;;;5065081;28;8896;-77
2021/08/27 10:10:14;;;;;;;;;2.00;2.00;;;;;;;;5064116;28;8858;-77
2021/08/27 10:12:44;;;;;;;;;0.60;0.60;;;;;;;;5064653;28;8874;-76
2021/08/27 10:15:12;;;;;;;;;1.20;1.20;;;;;;;;5042959;28;8869;-76
2021/08/27 10:17:41;;;;;;;;;0.60;0.60;;;;;;;;5044432;28;8892;-76
2021/08/27 10:20:10;;;;;;;;;2.20;2.20;;;;;;;;5045177;28;8877;-76
2021/08/27 10:22:40;;;;;;;;;2.40;2.40;;;;;;;;5043539;28;8891;-76
2021/08/27 10:25:10;;;;;;;;;2.00;2.00;;;;;;;;5033450;28;8885;-76
2021/08/27 10:27:37;;;;;;;;;2.20;1.00;;;;;;;;5058516;28;8975;-76
2021/08/27 10:30:07;;;;;;;;;1.40;0.60;;;;;;;;5059390;28;8886;-76
2021/08/27 10:32:51;;;;;;;;;0.80;0.80;;;;;;;;5047084;28;8889;-77
2021/08/27 10:35:49;;;;;;;;;0.60;0.60;;;;;;;;5043405;28;8907;-77
2021/08/27 10:38:38;;;;;;;;;1.20;1.20;;;;;;;;5035892;28;9824;-77
2021/08/27 10:41:14;;;;;;;;;2.00;2.00;;;;;;;;5057497;28;8913;-77
2021/08/27 10:43:52;;;;;;;;;2.40;1.20;;;;;;;;5058982;28;8853;-77
2021/08/27 10:46:20;;;;;;;;;4.60;3.20;;;;;;;;5045496;28;8862;-78
2021/08/27 10:48:52;;;;;;;;;3.00;1.00;;;;;;;;5067735;28;8872;-76
2021/08/27 10:51:34;;;;;;;;;1.20;1.20;;;;;;;;5065923;28;8885;-77
2021/08/27 10:54:02;;;;;;;;;1.40;0.80;;;;;;;;5072305;28;8860;-76
2021/08/27 10:56:43;;;;;;;;;2.00;2.00;;;;;;;;5070571;28;9708;-77
2021/08/27 10:59:13;;;;;;;;;2.40;2.40;;;;;;;;5069385;28;8882;-77
2021/08/27 11:01:42;;;;;;;;;1.20;1.20;;;;;;;;5047995;28;8835;-77
2021/08/27 11:04:17;;;;;;;;;2.00;2.00;;;;;;;;5078488;28;8869;-76
2021/08/27 11:06:50;;;;;;;;;2.00;2.00;;;;;;;;5082939;28;9024;-79
2021/08/27 11:09:22;;;;;;;;;2.00;2.00;;;;;;;;5084348;28;8873;-76
2021/08/27 11:12:09;;;;;;;;;3.20;2.00;;;;;;;;5073347;28;8858;-74
2021/08/27 11:14:37;;;;;;;;;1.60;1.40;;;;;;;;5068030;28;8871;-76
2021/08/27 11:17:06;;;;;;;;;3.00;3.00;;;;;;;;5045436;28;8867;-76
2021/08/27 11:19:35;;;;;;;;;2.00;2.00;;;;;;;;5070217;28;8883;-76
2021/08/27 11:22:26;;;;;;;;;2.00;2.00;;;;;;;;5078593;28;8884;-76
2021/08/27 11:25:17;;;;;;;;;6.00;1.80;;;;;;;;5074252;28;8864;-76
2021/08/27 11:28:07;;;;;;;;;2.60;2.60;;;;;;;;5079155;28;8885;-78
2021/08/27 11:30:35;;;;;;;;;2.20;2.20;;;;;;;;5062800;28;8820;-77
2021/08/27 11:33:03;;;;;;;;;3.80;3.00;;;;;;;;5072985;28;9669;-76
2021/08/27 11:35:33;;;;;;;;;3.00;3.00;;;;;;;;5081415;28;8869;-77
2021/08/27 11:38:05;;;;;;;;;2.00;2.00;;;;;;;;5063442;28;8852;-76
2021/08/27 11:40:33;;;;;;;;;2.00;2.00;;;;;;;;5045402;28;8864;-76
2021/08/27 11:43:00;;;;;;;;;3.00;3.00;;;;;;;;5064028;28;8851;-76
2021/08/27 11:45:27;;;;;;;;;3.80;2.40;;;;;;;;5061933;28;9001;-77
2021/08/27 11:47:58;;;;;;;;;3.00;3.00;;;;;;;;5086027;28;8865;-77
2021/08/27 11:50:29;;;;;;;;;2.60;2.60;;;;;;;;5086944;28;9005;-77
2021/08/27 11:52:59;;;;;;;;;2.40;1.60;;;;;;;;5083002;28;8941;-77
2021/08/27 11:55:27;;;;;;;;;3.20;3.20;;;;;;;;5087424;28;8881;-77
2021/08/27 11:57:56;;;;;;;;;3.60;1.80;;;;;;;;5086803;28;8899;-77
2021/08/27 12:00:25;;;;;;;;;2.00;2.00;;;;;;;;5086827;28;8780;-77
2021/08/27 12:02:53;;;;;;;;;3.00;3.00;;;;;;;;5086123;28;8893;-77
2021/08/27 12:05:21;;;;;;;;;2.20;2.20;;;;;;;;5087616;28;8869;-77
2021/08/27 12:07:53;;;;;;;;;2.20;2.20;;;;;;;;5086336;28;8893;-77
2021/08/27 12:10:23;;;;;;;;;2.20;2.20;;;;;;;;5077452;28;9010;-77
2021/08/27 12:12:52;;;;;;;;;2.80;2.80;;;;;;;;5085504;28;8870;-77
2021/08/27 12:15:20;;;;;;;;;2.40;2.40;;;;;;;;5070450;28;8979;-77
2021/08/27 12:18:00;;;;;;;;;3.20;1.80;;;;;;;;5086173;28;8877;-78
2021/08/27 12:20:30;;;;;;;;;1.60;1.60;;;;;;;;5085174;28;8865;-78
2021/08/27 12:23:06;;;;;;;;;2.40;2.40;;;;;;;;5075275;28;8977;-77
2021/08/27 12:25:41;;;;;;;;;1.80;0.60;;;;;;;;5050360;28;8960;-77
2021/08/27 12:28:10;;;;;;;;;3.00;1.00;;;;;;;;5076525;28;8954;-77
2021/08/27 12:30:44;;;;;;;;;1.20;1.20;;;;;;;;5073484;28;8784;-77
2021/08/27 12:33:11;;;;;;;;;2.40;1.60;;;;;;;;5052329;28;8908;-78
2021/08/27 12:35:39;;;;;;;;;1.00;1.00;;;;;;;;5066576;28;8884;-77
2021/08/27 12:38:08;;;;;;;;;2.00;2.00;;;;;;;;5068369;28;8883;-77
2021/08/27 12:40:37;;;;;;;;;2.60;2.60;;;;;;;;5068694;28;8869;-78
2021/08/27 12:43:06;;;;;;;;;1.80;1.80;;;;;;;;5086646;28;8896;-77
2021/08/27 12:45:45;;;;;;;;;2.80;2.60;;;;;;;;5066785;28;8876;-78
2021/08/27 12:48:15;;;;;;;;;2.40;2.40;;;;;;;;5066477;28;8862;-77
2021/08/27 12:50:51;;;;;;;;;2.60;1.20;;;;;;;;5065474;28;8896;-77
2021/08/27 12:53:22;;;;;;;;;3.00;2.80;;;;;;;;5066707;28;8883;-77
2021/08/27 12:55:51;;;;;;;;;1.80;1.80;;;;;;;;5065026;28;8887;-77
2021/08/27 12:58:31;;;;;;;;;2.40;2.40;;;;;;;;5065392;28;10299;-77
2021/08/27 13:01:13;;;;;;;;;2.60;2.60;;;;;;;;5065355;28;9566;-77
2021/08/27 13:03:41;;;;;;;;;1.80;1.80;;;;;;;;5083384;28;8897;-77
2021/08/27 13:06:08;;;;;;;;;2.60;2.60;;;;;;;;5086230;28;8873;-77
2021/08/27 13:08:35;;;;;;;;;1.00;1.00;;;;;;;;5085388;28;8874;-77
2021/08/27 13:11:06;;;;;;;;;2.80;2.80;;;;;;;;5086132;28;8875;-77
2021/08/27 13:13:38;;;;;;;;;2.20;2.20;;;;;;;;5054351;28;8860;-77
2021/08/27 13:16:11;;;;;;;;;2.00;2.00;;;;;;;;5058887;28;8875;-77
2021/08/27 13:18:40;;;;;;;;;3.00;3.00;;;;;;;;5055931;28;8877;-77
2021/08/27 13:21:08;;;;;;;;;2.60;2.60;;;;;;;;5085226;28;8911;-77
2021/08/27 13:23:35;;;;;;;;;2.20;2.20;;;;;;;;5084455;28;9530;-78
2021/08/27 13:26:08;;;;;;;;;3.00;3.00;;;;;;;;5064370;28;8864;-77
2021/08/27 13:28:36;;;;;;;;;2.60;2.60;;;;;;;;5065849;28;8883;-78
2021/08/27 13:31:03;;;;;;;;;3.00;3.00;;;;;;;;5059980;28;9748;-77
2021/08/27 13:33:30;;;;;;;;;2.80;1.80;;;;;;;;5064693;28;8867;-77
2021/08/27 13:35:58;;;;;;;;;1.40;1.40;;;;;;;;5068591;28;8980;-77
2021/08/27 13:38:25;;;;;;;;;2.20;2.20;;;;;;;;5070847;28;9022;-77
2021/08/27 13:40:53;;;;;;;;;3.60;3.60;;;;;;;;5064737;28;8884;-78
2021/08/27 13:43:22;;;;;;;;;2.20;2.20;;;;;;;;5064566;28;9791;-78
2021/08/27 13:45:49;;;;;;;;;2.80;2.80;;;;;;;;5058060;28;8899;-78
2021/08/27 13:48:17;;;;;;;;;1.60;1.60;;;;;;;;5085445;28;8877;-77
2021/08/27 13:50:44;;;;;;;;;2.00;2.00;;;;;;;;5084631;28;8927;-77
2021/08/27 13:53:11;;;;;;;;;1.80;1.80;;;;;;;;5081088;28;8881;-77
2021/08/27 13:55:38;;;;;;;;;2.60;1.40;;;;;;;;5083962;28;8903;-77
2021/08/27 13:58:06;;;;;;;;;2.80;2.80;;;;;;;;5085422;28;8911;-78
2021/08/27 14:00:35;;;;;;;;;2.60;2.60;;;;;;;;5082522;28;8797;-77
2021/08/27 14:03:02;;;;;;;;;3.20;0.60;;;;;;;;5085569;28;8903;-78
2021/08/27 14:05:29;;;;;;;;;2.00;2.00;;;;;;;;5084088;28;8869;-77
2021/08/27 14:07:57;;;;;;;;;0.80;0.80;;;;;;;;5084435;28;8917;-77
2021/08/27 14:10:24;;;;;;;;;2.60;1.00;;;;;;;;5072981;28;8871;-78
2021/08/27 14:12:52;;;;;;;;;2.00;2.00;;;;;;;;5077345;28;8889;-77
2021/08/27 14:15:19;;;;;;;;;1.80;1.80;;;;;;;;5038771;28;9626;-77
2021/08/27 14:17:48;;;;;;;;;2.00;1.80;;;;;;;;5045678;28;8883;-78
2021/08/27 14:20:15;;;;;;;;;4.00;1.00;;;;;;;;5064683;28;8930;-77
2021/08/27 14:22:45;;;;;;;;;1.60;1.60;;;;;;;;5064091;28;8911;-77
2021/08/27 14:25:13;;;;;;;;;2.20;0.80;;;;;;;;5049367;28;8962;-78
2021/08/27 14:27:41;;;;;;;;;1.40;1.40;;;;;;;;5080559;28;8876;-77
2021/08/27 14:30:11;;;;;;;;;2.20;1.80;;;;;;;;5074426;28;8974;-77
2021/08/27 14:32:41;;;;;;;;;2.20;1.60;;;;;;;;5063071;28;8868;-77
2021/08/27 14:35:12;;;;;;;;;1.00;1.00;;;;;;;;5063434;28;8892;-77
2021/08/27 14:37:40;;;;;;;;;1.80;1.80;;;;;;;;5064455;28;8877;-77
2021/08/27 14:40:09;;;;;;;;;3.00;1.00;;;;;;;;5084274;28;8845;-77
2021/08/27 14:42:36;;;;;;;;;0.20;0.20;;;;;;;;5079531;28;8956;-77
2021/08/27 14:45:05;;;;;;;;;0.80;0.80;;;;;;;;5065505;28;8962;-77
2021/08/27 14:47:32;;;;;;;;;2.60;1.60;;;;;;;;5063185;28;8887;-77
2021/08/27 14:49:59;;;;;;;;;1.20;1.00;;;;;;;;5064247;28;8867;-77
2021/08/27 14:52:28;;;;;;;;;1.60;1.60;;;;;;;;5063163;28;8892;-77
2021/08/27 14:54:56;;;;;;;;;1.80;1.80;;;;;;;;5064503;28;8868;-77
2021/08/27 14:57:23;;;;;;;;;2.00;2.00;;;;;;;;5063469;28;8982;-77
2021/08/27 14:59:50;;;;;;;;;2.00;2.00;;;;;;;;5063721;28;9010;-77
2021/08/27 15:02:17;;;;;;;;;1.80;1.80;;;;;;;;5082719;28;8991;-77
2021/08/27 15:04:45;;;;;;;;;2.00;2.00;;;;;;;;5083351;28;8976;-77